sensor_id;sensor_type;location;lat;lon;timestamp;P1;durP1;ratioP1;P2;durP2;ratioP2
43817;SDS011;29868;47.360;18.984;2024-02-26T18:59:17;72.45;;;46.13;;
43817;SDS011;29868;47.360;18.984;2024-02-26T19:01:42;71.90;;;44.90;;
43817;SDS011;29868;47.360;18.984;2024-02-26T19:04:08;70.68;;;45.92;;
43817;SDS011;29868;47.360;18.984;2024-02-26T19:06:34;74.20;;;46.85;;
43817;SDS011;29868;47.360;18.984;2024-02-26T19:09:03;70.00;;;45.95;;
43817;SDS011;29868;47.360;18.984;2024-02-26T19:11:30;74.40;;;49.80;;
43817;SDS011;29868;47.360;18.984;2024-02-26T19:13:55;79.88;;;52.17;;
43817;SDS011;29868;47.360;18.984;2024-02-26T19:16:22;80.28;;;51.20;;
43817;SDS011;29868;47.360;18.984;2024-02-26T19:18:48;79.88;;;52.67;;
43817;SDS011;29868;47.360;18.984;2024-02-26T19:21:14;87.57;;;54.20;;
43817;SDS011;29868;47.360;18.984;2024-02-26T19:23:40;82.97;;;52.58;;
43817;SDS011;29868;47.360;18.984;2024-02-26T19:26:05;77.35;;;51.85;;
43817;SDS011;29868;47.360;18.984;2024-02-26T19:28:30;84.40;;;53.60;;
43817;SDS011;29868;47.360;18.984;2024-02-26T19:30:56;76.68;;;51.50;;
43817;SDS011;29868;47.360;18.984;2024-02-26T19:33:21;83.00;;;52.05;;
43817;SDS011;29868;47.360;18.984;2024-02-26T19:35:47;81.18;;;51.72;;
43817;SDS011;29868;47.360;18.984;2024-02-26T19:38:13;86.78;;;53.72;;
43817;SDS011;29868;47.360;18.984;2024-02-26T19:40:42;87.65;;;53.40;;
43817;SDS011;29868;47.360;18.984;2024-02-26T19:43:09;79.85;;;52.13;;
43817;SDS011;29868;47.360;18.984;2024-02-26T19:45:34;79.50;;;51.70;;
43817;SDS011;29868;47.360;18.984;2024-02-26T19:47:59;80.47;;;51.95;;
43817;SDS011;29868;47.360;18.984;2024-02-26T19:50:25;78.85;;;49.95;;
43817;SDS011;29868;47.360;18.984;2024-02-26T19:52:50;77.20;;;50.05;;
43817;SDS011;29868;47.360;18.984;2024-02-26T19:55:17;85.55;;;53.08;;
43817;SDS011;29868;47.360;18.984;2024-02-26T19:57:42;86.88;;;54.60;;
43817;SDS011;29868;47.360;18.984;2024-02-26T20:00:08;80.18;;;53.20;;
43817;SDS011;29868;47.360;18.984;2024-02-26T20:02:34;84.22;;;54.35;;
43817;SDS011;29868;47.360;18.984;2024-02-26T20:05:01;93.65;;;57.20;;
43817;SDS011;29868;47.360;18.984;2024-02-26T20:07:28;83.82;;;54.00;;
43817;SDS011;29868;47.360;18.984;2024-02-26T20:09:55;80.40;;;55.10;;
43817;SDS011;29868;47.360;18.984;2024-02-26T20:12:21;112.75;;;69.70;;
43817;SDS011;29868;47.360;18.984;2024-02-26T20:14:46;106.53;;;68.20;;
43817;SDS011;29868;47.360;18.984;2024-02-26T20:17:11;102.60;;;65.53;;
43817;SDS011;29868;47.360;18.984;2024-02-26T20:19:40;94.57;;;62.63;;
43817;SDS011;29868;47.360;18.984;2024-02-26T20:22:07;97.35;;;62.65;;
43817;SDS011;29868;47.360;18.984;2024-02-26T20:24:35;101.25;;;64.50;;
43817;SDS011;29868;47.360;18.984;2024-02-26T20:27:00;99.90;;;64.00;;
43817;SDS011;29868;47.360;18.984;2024-02-26T20:29:26;109.65;;;67.97;;
43817;SDS011;29868;47.360;18.984;2024-02-26T20:31:51;107.35;;;67.03;;
43817;SDS011;29868;47.360;18.984;2024-02-26T20:34:16;104.80;;;65.90;;
43817;SDS011;29868;47.360;18.984;2024-02-26T20:36:42;104.97;;;63.85;;
43817;SDS011;29868;47.360;18.984;2024-02-26T20:39:07;95.50;;;61.67;;
43817;SDS011;29868;47.360;18.984;2024-02-26T20:41:32;94.22;;;60.55;;
43817;SDS011;29868;47.360;18.984;2024-02-26T20:43:58;99.25;;;57.97;;
